UWGG 181300Z 04004MPS 360V090 CAVOK 15/01 Q1020 R36R/090070 NOSIG
QNH:(hPa/inHg/mmHg)1020 / 30.12 / 765
QFE:(hPa/inHg/mmHg)1011 / 29.84 / 758
Temperature15
Dew Point1
Visibility> 10000
WeatherCAVOK
Cloud Cover
Transition Altitude5000 ft.
Transition LevelFL60
SQUAWK